Main page
METAR-TAF:

METAR-TAF

Airports :

Harbin Taiping International Airport

Harbin, China

latitude: 45-45N, longitude: 126-46E, elevation: 143 m

Current weather observation

The report was made 29 minutes ago, at 01:00 UTC
Wind 4 kt from the North/Northeast, varying between North/Northwest and East
Temperature 7°C
Humidity 22%
Pressure 1020 hPa
Visibility 10 km or more
no clouds below 1500 m and no cumulonimbus

METAR: ZYHB 190100Z 03002MPS 340V080 CAVOK 07/M13 Q1020 NOSIG

Time: 09:29 (01:29 UTC)

Forecast

The report was made 6 hours and 20 minutes ago, at 19:09 UTC
Forecast valid from 19 at 00 UTC to 19 at 24 UTC
Wind 8 kt from the Northwest
Visibility: 6000 m
Scattered clouds at a height of 3000 ft

TAF: ZYHB 181909Z 1900/1924 32004MPS 6000 SCT030 TX12/1906Z TN01/1921Z

Weather observations and forecasts of more than 4000 airports (METAR and TAF reports).

The available stations are represented by yellow and red dots on the map.

Hover mouse over dot to see the name of the station.

Then click to see weather observations and forecasts.

To change the map : click on the green buttons with a black cross to zoom in, on the green button with a dash to zoom out, or on the green arrows for adjacent maps.


METAR-TAF: